Time;durP1;ratioP1;P1;durP2;ratioP2;P2;SDS_P1;SDS_P2;PMS_P1;PMS_P2;Temp;Humidity;BMP_temperature;BMP_pressure;BME280_temperature;BME280_humidity;BME280_pressure;Samples;Min_cycle;Max_cycle;Signal;HPM_P1;HPM_P2
2022/02/12 00:02:19;;;;;;;;;;;2.70;79.60;;;;;;5077986;28;19908;-81
2022/02/12 00:04:44;;;;;;;;;;;2.70;79.60;;;;;;5078166;28;19912;-83
2022/02/12 00:07:10;;;;;;;;;;;2.60;79.70;;;;;;5077802;28;19999;-82
2022/02/12 00:09:36;;;;;;;;;;;2.60;79.70;;;;;;5078031;28;20404;-82
2022/02/12 00:12:02;;;;;;;;;;;2.60;79.80;;;;;;5064025;28;20372;-82
2022/02/12 00:14:28;;;;;;;;;;;2.50;79.70;;;;;;5078009;28;19908;-81
2022/02/12 00:16:53;;;;;;;;;;;2.50;79.60;;;;;;5077936;28;19915;-82
2022/02/12 00:19:19;;;;;;;;;;;2.50;79.80;;;;;;5077982;28;19916;-82
2022/02/12 00:21:45;;;;;;;;;;;2.40;79.90;;;;;;5076543;28;19916;-83
2022/02/12 00:24:10;;;;;;;;;;;2.30;79.80;;;;;;5077905;28;19962;-82
2022/02/12 00:26:36;;;;;;;;;;;2.30;80.00;;;;;;5077994;28;19912;-83
2022/02/12 00:29:01;;;;;;;;;;;2.30;80.00;;;;;;5076609;28;19909;-82
2022/02/12 00:31:27;;;;;;;;;;;2.20;80.00;;;;;;5077791;28;19912;-82
2022/02/12 00:33:53;;;;;;;;;;;2.20;80.10;;;;;;5077725;28;19966;-82
2022/02/12 00:36:18;;;;;;;;;;;2.20;80.10;;;;;;5077801;28;19912;-82
2022/02/12 00:38:44;;;;;;;;;;;2.10;80.00;;;;;;5077825;28;20343;-82
2022/02/12 00:41:10;;;;;;;;;;;2.10;80.00;;;;;;5073176;28;19932;-82
2022/02/12 00:43:37;;;;;;;;;;;2.00;80.00;;;;;;5077518;28;19959;-83
2022/02/12 00:46:03;;;;;;;;;;;2.00;80.10;;;;;;5077748;28;19919;-82
2022/02/12 00:48:30;;;;;;;;;;;2.00;80.20;;;;;;5077728;28;19909;-82
2022/02/12 00:50:59;;;;;;;;;;;1.90;80.20;;;;;;5077628;28;19912;-82
2022/02/12 00:53:25;;;;;;;;;;;1.90;80.20;;;;;;5077559;28;19912;-82
2022/02/12 00:55:51;;;;;;;;;;;1.90;80.00;;;;;;5077462;28;19916;-82
2022/02/12 00:58:16;;;;;;;;;;;1.80;80.10;;;;;;5077398;28;20386;-81
2022/02/12 01:00:42;;;;;;;;;;;1.80;80.10;;;;;;5077611;28;19962;-82
2022/02/12 01:03:08;;;;;;;;;;;1.80;80.10;;;;;;5076121;28;19954;-82
2022/02/12 01:05:33;;;;;;;;;;;1.80;80.10;;;;;;5076106;28;19909;-82
2022/02/12 01:07:59;;;;;;;;;;;1.70;80.30;;;;;;5077797;28;19908;-82
2022/02/12 01:10:24;;;;;;;;;;;1.70;80.40;;;;;;5076680;28;19916;-82
2022/02/12 01:12:50;;;;;;;;;;;1.70;80.40;;;;;;5064453;28;20295;-83
2022/02/12 01:15:16;;;;;;;;;;;1.60;80.50;;;;;;5077741;28;19909;-82
2022/02/12 01:17:41;;;;;;;;;;;1.60;80.40;;;;;;5078306;28;19915;-83
2022/02/12 01:20:07;;;;;;;;;;;1.60;80.40;;;;;;5075496;28;19909;-82
2022/02/12 01:22:33;;;;;;;;;;;1.60;80.60;;;;;;5081146;28;19943;-84
2022/02/12 01:24:58;;;;;;;;;;;1.50;80.60;;;;;;5080883;28;19968;-84
2022/02/12 01:27:24;;;;;;;;;;;1.50;80.80;;;;;;5079455;28;19962;-84
2022/02/12 01:29:50;;;;;;;;;;;1.50;80.80;;;;;;5079609;28;20011;-84
2022/02/12 01:32:15;;;;;;;;;;;1.50;80.70;;;;;;5079942;28;19913;-84
2022/02/12 01:34:41;;;;;;;;;;;1.50;80.60;;;;;;5079508;28;19915;-84
2022/02/12 01:37:08;;;;;;;;;;;1.40;81.00;;;;;;5081074;28;19962;-85
2022/02/12 01:39:33;;;;;;;;;;;1.40;81.20;;;;;;5077150;28;19909;-84
2022/02/12 01:41:59;;;;;;;;;;;1.40;81.10;;;;;;5081099;28;20443;-84
2022/02/12 01:44:32;;;;;;;;;;;1.40;81.00;;;;;;5080338;28;19927;-84
2022/02/12 01:46:59;;;;;;;;;;;1.40;81.30;;;;;;5079467;28;19991;-85
2022/02/12 01:49:25;;;;;;;;;;;1.30;81.90;;;;;;5080595;28;20337;-85
2022/02/12 01:51:51;;;;;;;;;;;1.40;82.00;;;;;;5079323;28;19913;-84
2022/02/12 01:54:17;;;;;;;;;;;1.30;81.90;;;;;;5080273;28;19909;-83
2022/02/12 01:56:45;;;;;;;;;;;1.30;82.60;;;;;;5080659;28;19930;-84
2022/02/12 01:59:10;;;;;;;;;;;1.30;82.50;;;;;;5080352;28;19958;-83
2022/02/12 02:01:36;;;;;;;;;;;1.30;82.40;;;;;;5079356;28;19983;-83
2022/02/12 02:04:02;;;;;;;;;;;1.30;82.50;;;;;;5080303;28;20303;-82
2022/02/12 02:06:27;;;;;;;;;;;1.30;82.30;;;;;;5080600;28;19908;-84
2022/02/12 02:08:53;;;;;;;;;;;1.30;82.40;;;;;;5080069;28;19909;-83
2022/02/12 02:11:19;;;;;;;;;;;1.30;82.20;;;;;;5072166;28;19912;-84
2022/02/12 02:13:45;;;;;;;;;;;1.30;82.20;;;;;;5074653;28;19916;-83
2022/02/12 02:16:11;;;;;;;;;;;1.20;82.40;;;;;;5079540;28;19908;-83
2022/02/12 02:18:37;;;;;;;;;;;1.20;82.60;;;;;;5079922;28;19913;-83
2022/02/12 02:21:04;;;;;;;;;;;1.20;82.80;;;;;;5080120;28;19915;-84
2022/02/12 02:23:29;;;;;;;;;;;1.20;82.80;;;;;;5079969;28;19916;-82
2022/02/12 02:25:55;;;;;;;;;;;1.10;83.10;;;;;;5079963;28;19909;-84
2022/02/12 02:28:20;;;;;;;;;;;1.20;83.70;;;;;;5079585;28;19970;-84
2022/02/12 02:30:46;;;;;;;;;;;1.20;83.30;;;;;;5079979;28;19908;-83
2022/02/12 02:33:12;;;;;;;;;;;1.20;83.00;;;;;;5079660;28;19962;-84
2022/02/12 02:35:37;;;;;;;;;;;1.10;82.70;;;;;;5079950;28;20003;-83
2022/02/12 02:38:07;;;;;;;;;;;1.10;82.40;;;;;;5079825;28;19991;-83
2022/02/12 02:40:33;;;;;;;;;;;1.10;82.20;;;;;;5076113;28;19908;-83
2022/02/12 02:42:58;;;;;;;;;;;1.10;82.00;;;;;;5079183;28;19916;-84
2022/02/12 02:45:24;;;;;;;;;;;1.00;82.40;;;;;;5079443;28;19950;-84
2022/02/12 02:47:50;;;;;;;;;;;1.00;83.00;;;;;;5079450;28;20256;-83
2022/02/12 02:56:01;;;;;;;;;;;1.00;82.50;;;;;;5079389;28;19916;-83
2022/02/12 02:58:36;;;;;;;;;;;1.00;82.40;;;;;;5079210;28;19909;-83
2022/02/12 03:01:03;;;;;;;;;;;1.00;82.20;;;;;;5079214;28;19908;-81
2022/02/12 03:03:29;;;;;;;;;;;0.90;81.80;;;;;;5079252;28;19908;-82
2022/02/12 03:05:56;;;;;;;;;;;0.90;82.00;;;;;;5079148;28;19996;-81
2022/02/12 03:08:21;;;;;;;;;;;0.90;82.20;;;;;;5079307;28;19966;-82
2022/02/12 03:10:47;;;;;;;;;;;0.80;82.20;;;;;;5075090;28;19909;-81
2022/02/12 03:13:13;;;;;;;;;;;0.80;82.20;;;;;;5069517;28;19924;-82
2022/02/12 03:15:42;;;;;;;;;;;0.80;82.20;;;;;;5079103;28;19909;-82
2022/02/12 03:18:08;;;;;;;;;;;0.70;82.20;;;;;;5079086;28;19954;-81
2022/02/12 03:20:34;;;;;;;;;;;0.70;82.40;;;;;;5078783;28;19976;-82
2022/02/12 03:23:00;;;;;;;;;;;0.60;82.40;;;;;;5078998;28;20312;-81
2022/02/12 03:25:26;;;;;;;;;;;0.60;82.50;;;;;;5078600;28;19998;-81
2022/02/12 03:27:54;;;;;;;;;;;0.60;82.40;;;;;;5078514;28;19908;-80
2022/02/12 03:30:20;;;;;;;;;;;0.50;82.50;;;;;;5078622;28;19954;-80
2022/02/12 03:32:46;;;;;;;;;;;0.50;82.40;;;;;;5078680;28;19913;-80
2022/02/12 03:35:11;;;;;;;;;;;0.50;82.50;;;;;;5078457;28;20007;-80
2022/02/12 03:37:37;;;;;;;;;;;0.40;82.50;;;;;;5078614;28;20357;-80
2022/02/12 03:40:03;;;;;;;;;;;0.40;82.50;;;;;;5074329;28;19908;-80
2022/02/12 03:42:29;;;;;;;;;;;0.40;82.60;;;;;;5078024;28;19909;-81
2022/02/12 03:44:54;;;;;;;;;;;0.40;82.50;;;;;;5078266;28;20467;-83
2022/02/12 03:47:20;;;;;;;;;;;0.40;82.50;;;;;;5078404;28;19930;-82
2022/02/12 03:49:46;;;;;;;;;;;0.30;82.50;;;;;;5078177;28;19943;-82
2022/02/12 03:52:11;;;;;;;;;;;0.30;82.60;;;;;;5078386;28;19996;-82
2022/02/12 03:54:37;;;;;;;;;;;0.30;82.60;;;;;;5077987;28;20000;-82
2022/02/12 03:57:03;;;;;;;;;;;0.20;82.40;;;;;;5078153;28;19913;-83
2022/02/12 03:59:28;;;;;;;;;;;0.20;82.60;;;;;;5076772;28;19909;-80
2022/02/12 04:01:54;;;;;;;;;;;0.20;82.60;;;;;;5078177;28;19955;-80
2022/02/12 04:04:19;;;;;;;;;;;0.20;82.40;;;;;;5077967;28;19959;-80
2022/02/12 04:06:45;;;;;;;;;;;0.10;82.30;;;;;;5076843;28;20356;-80
2022/02/12 04:09:11;;;;;;;;;;;0.10;82.30;;;;;;5077845;28;19948;-80
2022/02/12 04:11:36;;;;;;;;;;;0.10;82.40;;;;;;5067363;28;20011;-80
2022/02/12 04:14:02;;;;;;;;;;;0.10;82.50;;;;;;5074970;28;20003;-81
2022/02/12 04:16:28;;;;;;;;;;;0.10;82.70;;;;;;5078124;28;19953;-81
2022/02/12 04:18:53;;;;;;;;;;;0.00;82.60;;;;;;5077846;28;20003;-83
2022/02/12 04:21:19;;;;;;;;;;;0.00;82.40;;;;;;5076595;28;19948;-81
2022/02/12 04:23:45;;;;;;;;;;;0.00;82.50;;;;;;5076533;28;19995;-82
2022/02/12 04:26:12;;;;;;;;;;;0.00;82.70;;;;;;5077158;28;19909;-81
2022/02/12 04:28:38;;;;;;;;;;;0.00;82.70;;;;;;5076161;28;19908;-81
2022/02/12 04:31:04;;;;;;;;;;;0.00;82.80;;;;;;5077882;28;20357;-85
2022/02/12 04:33:30;;;;;;;;;;;-0.10;82.80;;;;;;5077634;28;19935;-81
2022/02/12 04:35:56;;;;;;;;;;;-0.10;82.80;;;;;;5077774;28;19909;-82
2022/02/12 04:38:21;;;;;;;;;;;-0.10;82.60;;;;;;5076354;28;19940;-82
2022/02/12 04:40:47;;;;;;;;;;;-0.20;82.70;;;;;;5074770;28;20337;-82
2022/02/12 04:43:12;;;;;;;;;;;-0.20;82.80;;;;;;5077316;28;19932;-83
2022/02/12 04:45:38;;;;;;;;;;;-0.20;82.80;;;;;;5077430;28;20042;-84
2022/02/12 04:48:04;;;;;;;;;;;-0.20;82.80;;;;;;5077601;28;19935;-84
2022/02/12 04:50:29;;;;;;;;;;;-0.20;82.80;;;;;;5077846;28;20256;-84
2022/02/12 04:52:55;;;;;;;;;;;-0.20;82.80;;;;;;5077416;28;19982;-85
2022/02/12 04:55:21;;;;;;;;;;;-0.30;82.60;;;;;;5081706;28;20313;-83
2022/02/12 04:57:46;;;;;;;;;;;-0.30;82.80;;;;;;5081207;28;19908;-83
2022/02/12 05:00:13;;;;;;;;;;;-0.30;82.80;;;;;;5081620;28;19968;-80
2022/02/12 05:02:41;;;;;;;;;;;-0.30;82.90;;;;;;5081363;28;19944;-85
2022/02/12 05:05:07;;;;;;;;;;;-0.40;82.80;;;;;;5081302;28;19942;-85
2022/02/12 05:07:33;;;;;;;;;;;-0.40;82.80;;;;;;5079980;28;19979;-85
2022/02/12 05:09:58;;;;;;;;;;;-0.40;82.90;;;;;;5081287;28;20403;-85
2022/02/12 05:12:24;;;;;;;;;;;-0.40;82.90;;;;;;5067279;28;19923;-84
2022/02/12 05:14:50;;;;;;;;;;;-0.40;83.80;;;;;;5081221;28;19909;-83
2022/02/12 05:17:16;;;;;;;;;;;-0.40;83.10;;;;;;5081206;28;19999;-84
2022/02/12 05:19:41;;;;;;;;;;;-0.50;83.10;;;;;;5081261;28;19909;-82
2022/02/12 05:22:07;;;;;;;;;;;-0.50;83.10;;;;;;5079689;28;19995;-81
2022/02/12 05:24:33;;;;;;;;;;;-0.50;83.00;;;;;;5081281;28;19915;-80
2022/02/12 05:26:59;;;;;;;;;;;-0.50;82.90;;;;;;5080712;28;19908;-81
2022/02/12 05:29:24;;;;;;;;;;;-0.50;82.90;;;;;;5081276;28;19920;-81
2022/02/12 05:31:50;;;;;;;;;;;-0.60;82.90;;;;;;5079650;28;20278;-80
2022/02/12 05:34:16;;;;;;;;;;;-0.60;83.00;;;;;;5079565;28;20046;-81
2022/02/12 05:36:42;;;;;;;;;;;-0.60;83.30;;;;;;5080828;28;19913;-80
2022/02/12 05:39:09;;;;;;;;;;;-0.60;83.20;;;;;;5078143;28;19999;-80
2022/02/12 05:41:35;;;;;;;;;;;-0.60;83.10;;;;;;5078885;28;19913;-81
2022/02/12 05:44:01;;;;;;;;;;;-0.60;83.10;;;;;;5080414;28;19916;-80
2022/02/12 05:46:27;;;;;;;;;;;-0.60;83.00;;;;;;5080588;28;19915;-80
2022/02/12 05:48:52;;;;;;;;;;;-0.60;83.10;;;;;;5079438;28;19915;-80
2022/02/12 05:51:20;;;;;;;;;;;-0.70;83.00;;;;;;5080389;28;19913;-79
2022/02/12 05:53:46;;;;;;;;;;;-0.70;83.10;;;;;;5080515;28;19908;-80
2022/02/12 05:56:12;;;;;;;;;;;-0.70;83.10;;;;;;5080397;28;19954;-81
2022/02/12 05:58:37;;;;;;;;;;;-0.80;83.00;;;;;;5080370;28;19969;-80
2022/02/12 06:01:03;;;;;;;;;;;-0.80;83.00;;;;;;5080333;28;19908;-81
2022/02/12 06:03:28;;;;;;;;;;;-0.80;83.20;;;;;;5078527;28;19908;-81
2022/02/12 06:05:54;;;;;;;;;;;-0.80;83.30;;;;;;5080246;28;19962;-81
2022/02/12 06:08:20;;;;;;;;;;;-0.80;83.30;;;;;;5080380;28;20440;-80
2022/02/12 06:10:46;;;;;;;;;;;-0.80;83.30;;;;;;5076456;28;19932;-81
2022/02/12 06:13:12;;;;;;;;;;;-0.90;83.30;;;;;;5070171;28;19966;-80
2022/02/12 06:15:38;;;;;;;;;;;-0.90;83.20;;;;;;5080128;28;19909;-80
2022/02/12 06:18:04;;;;;;;;;;;-0.90;83.00;;;;;;5079188;28;19908;-80
2022/02/12 06:20:30;;;;;;;;;;;-0.90;83.10;;;;;;5080063;28;19909;-80
2022/02/12 06:22:55;;;;;;;;;;;-0.90;83.10;;;;;;5080101;28;19916;-80
2022/02/12 06:25:21;;;;;;;;;;;-0.90;83.20;;;;;;5079866;28;19931;-80
2022/02/12 06:27:46;;;;;;;;;;;-0.90;83.30;;;;;;5079699;28;20484;-80
2022/02/12 06:30:12;;;;;;;;;;;-0.90;83.10;;;;;;5079826;28;19909;-80
2022/02/12 06:32:38;;;;;;;;;;;-0.90;83.30;;;;;;5079932;28;19912;-80
2022/02/12 06:35:03;;;;;;;;;;;-0.90;83.50;;;;;;5078661;28;19923;-80
2022/02/12 06:37:30;;;;;;;;;;;-0.90;83.70;;;;;;5079772;28;19908;-80
2022/02/12 06:39:56;;;;;;;;;;;-0.90;83.90;;;;;;5075768;28;19915;-81
2022/02/12 06:42:22;;;;;;;;;;;-0.90;84.50;;;;;;5078401;28;19912;-83
2022/02/12 06:44:47;;;;;;;;;;;-0.90;84.80;;;;;;5078099;28;19924;-84
2022/02/12 06:47:13;;;;;;;;;;;-0.80;84.90;;;;;;5078327;28;19908;-83
2022/02/12 06:49:38;;;;;;;;;;;-0.80;85.30;;;;;;5079453;28;20432;-83
2022/02/12 06:52:04;;;;;;;;;;;-0.80;86.60;;;;;;5079399;28;19916;-81
2022/02/12 06:54:30;;;;;;;;;;;-0.80;87.70;;;;;;5079241;28;19908;-82
2022/02/12 06:56:56;;;;;;;;;;;-0.80;88.80;;;;;;5077846;28;19916;-81
2022/02/12 06:59:22;;;;;;;;;;;-0.80;88.70;;;;;;5079310;28;20288;-81
2022/02/12 07:01:48;;;;;;;;;;;-0.80;89.30;;;;;;5079280;28;20007;-81
2022/02/12 07:04:14;;;;;;;;;;;-0.80;89.60;;;;;;5079143;28;19966;-82
2022/02/12 07:06:40;;;;;;;;;;;-0.70;89.80;;;;;;5079251;28;19908;-82
2022/02/12 07:09:06;;;;;;;;;;;-0.70;89.90;;;;;;5078943;28;20333;-80
2022/02/12 07:11:32;;;;;;;;;;;-0.70;90.00;;;;;;5069000;28;19920;-82
2022/02/12 07:13:58;;;;;;;;;;;-0.70;90.00;;;;;;5075606;28;19936;-80
2022/02/12 07:16:23;;;;;;;;;;;-0.70;90.00;;;;;;5078208;28;19908;-84
2022/02/12 07:18:49;;;;;;;;;;;-0.70;90.00;;;;;;5078911;28;20287;-82
2022/02/12 07:21:15;;;;;;;;;;;-0.70;90.00;;;;;;5078920;28;20391;-83
2022/02/12 07:23:41;;;;;;;;;;;-0.70;89.90;;;;;;5078794;28;19950;-82
2022/02/12 07:26:07;;;;;;;;;;;-0.70;90.10;;;;;;5078729;28;19908;-81
2022/02/12 07:28:32;;;;;;;;;;;-0.70;90.20;;;;;;5078447;28;19936;-82
2022/02/12 07:30:58;;;;;;;;;;;-0.60;90.30;;;;;;5078782;28;19916;-81
2022/02/12 07:33:26;;;;;;;;;;;-0.60;90.20;;;;;;5078666;28;19914;-82
2022/02/12 07:35:52;;;;;;;;;;;-0.60;90.20;;;;;;5078690;28;19962;-81
2022/02/12 07:38:18;;;;;;;;;;;-0.60;90.30;;;;;;5078690;28;19915;-84
2022/02/12 07:40:43;;;;;;;;;;;-0.60;90.50;;;;;;5075653;28;19908;-82
2022/02/12 07:43:09;;;;;;;;;;;-0.60;90.50;;;;;;5078028;28;20394;-83
2022/02/12 07:45:35;;;;;;;;;;;-0.50;90.70;;;;;;5077166;28;20302;-83
2022/02/12 07:48:00;;;;;;;;;;;-0.60;90.40;;;;;;5078497;28;19908;-81
2022/02/12 07:50:26;;;;;;;;;;;-0.60;90.20;;;;;;5078556;28;19993;-83
2022/02/12 07:52:52;;;;;;;;;;;-0.60;89.90;;;;;;5078073;28;19912;-82
2022/02/12 07:55:18;;;;;;;;;;;-0.60;89.90;;;;;;5078301;28;19915;-83
2022/02/12 07:57:45;;;;;;;;;;;-0.60;89.80;;;;;;5077823;28;19993;-82
2022/02/12 08:00:10;;;;;;;;;;;-0.50;89.60;;;;;;5078301;28;20256;-82
2022/02/12 08:02:36;;;;;;;;;;;-0.50;89.30;;;;;;5077958;28;19981;-81
2022/02/12 08:05:02;;;;;;;;;;;-0.50;88.80;;;;;;5078145;28;19909;-83
2022/02/12 08:07:27;;;;;;;;;;;-0.50;88.50;;;;;;5078039;28;19995;-82
2022/02/12 08:09:57;;;;;;;;;;;-0.50;89.00;;;;;;5078178;28;19908;-83
2022/02/12 08:12:23;;;;;;;;;;;-0.50;89.80;;;;;;5064050;28;19934;-82
2022/02/12 08:14:52;;;;;;;;;;;-0.50;90.00;;;;;;5078366;28;20000;-82
2022/02/12 08:17:19;;;;;;;;;;;-0.40;90.00;;;;;;5077901;28;19959;-82
2022/02/12 08:19:45;;;;;;;;;;;-0.40;89.80;;;;;;5077849;28;19912;-82
2022/02/12 08:22:11;;;;;;;;;;;-0.30;90.00;;;;;;5077966;28;19908;-82
2022/02/12 08:24:37;;;;;;;;;;;-0.20;90.10;;;;;;5078115;28;19912;-82
2022/02/12 08:27:03;;;;;;;;;;;-0.20;90.40;;;;;;5077373;28;20368;-80
2022/02/12 08:29:29;;;;;;;;;;;-0.10;90.70;;;;;;5078011;28;19908;-80
2022/02/12 08:31:56;;;;;;;;;;;0.00;91.00;;;;;;5077572;28;20405;-80
2022/02/12 08:34:22;;;;;;;;;;;0.00;91.00;;;;;;5076794;28;19916;-80
2022/02/12 08:36:48;;;;;;;;;;;0.10;91.00;;;;;;5077678;28;19912;-79
2022/02/12 08:39:13;;;;;;;;;;;0.20;91.00;;;;;;5075686;28;19953;-80
2022/02/12 08:41:39;;;;;;;;;;;0.30;91.00;;;;;;5075755;28;19996;-79
2022/02/12 08:44:05;;;;;;;;;;;0.40;91.00;;;;;;5077627;28;20007;-79
2022/02/12 08:46:30;;;;;;;;;;;0.50;90.90;;;;;;5077567;28;19995;-79
2022/02/12 08:48:58;;;;;;;;;;;0.60;90.80;;;;;;5077981;28;20279;-79
2022/02/12 08:51:24;;;;;;;;;;;0.80;90.70;;;;;;5077649;28;20359;-79
2022/02/12 08:53:50;;;;;;;;;;;0.90;90.60;;;;;;5077627;28;19908;-79
2022/02/12 08:56:16;;;;;;;;;;;1.10;90.50;;;;;;5077461;28;19908;-80
2022/02/12 08:58:41;;;;;;;;;;;1.30;90.30;;;;;;5077420;28;19916;-79
2022/02/12 09:01:08;;;;;;;;;;;1.40;90.30;;;;;;5077425;28;19954;-79
2022/02/12 09:03:34;;;;;;;;;;;1.60;90.20;;;;;;5077612;28;19909;-79
2022/02/12 09:06:00;;;;;;;;;;;1.70;90.20;;;;;;5077483;28;19908;-80
2022/02/12 09:08:26;;;;;;;;;;;1.90;90.20;;;;;;5077535;28;20277;-80
2022/02/12 09:10:51;;;;;;;;;;;2.10;90.30;;;;;;5072868;28;19954;-81
2022/02/12 09:13:17;;;;;;;;;;;2.40;90.20;;;;;;5068175;28;19913;-82
2022/02/12 09:15:42;;;;;;;;;;;2.70;90.10;;;;;;5077214;28;19909;-82
2022/02/12 09:18:08;;;;;;;;;;;2.90;89.90;;;;;;5077606;28;20391;-81
2022/02/12 09:20:34;;;;;;;;;;;3.20;89.40;;;;;;5077173;28;19908;-81
2022/02/12 09:22:59;;;;;;;;;;;3.20;88.40;;;;;;5077466;28;19952;-81
2022/02/12 09:25:25;;;;;;;;;;;3.30;87.60;;;;;;5077068;28;19913;-80
2022/02/12 09:27:51;;;;;;;;;;;3.30;87.00;;;;;;5077152;28;19913;-80
2022/02/12 09:30:16;;;;;;;;;;;3.30;86.70;;;;;;5077211;28;19915;-80
2022/02/12 09:32:42;;;;;;;;;;;3.30;86.50;;;;;;5077266;28;19934;-80
2022/02/12 09:35:08;;;;;;;;;;;3.30;86.50;;;;;;5077301;28;19913;-81
2022/02/12 09:37:33;;;;;;;;;;;3.40;86.60;;;;;;5077226;28;19909;-81
2022/02/12 09:39:59;;;;;;;;;;;3.50;86.90;;;;;;5074379;28;19915;-82
2022/02/12 09:42:25;;;;;;;;;;;3.70;87.40;;;;;;5079403;28;19909;-82
2022/02/12 09:44:51;;;;;;;;;;;4.00;88.00;;;;;;5080525;28;19920;-82
2022/02/12 09:47:24;;;;;;;;;;;4.60;88.80;;;;;;5080633;28;19956;-83
2022/02/12 09:49:52;;;;;;;;;;;5.30;88.70;;;;;;5080517;28;20011;-86
2022/02/12 09:52:18;;;;;;;;;;;6.10;88.20;;;;;;5079345;28;20433;-88
2022/02/12 09:54:44;;;;;;;;;;;6.80;86.60;;;;;;5080355;28;19912;-87
2022/02/12 09:57:10;;;;;;;;;;;7.30;84.80;;;;;;5080264;28;20287;-87
2022/02/12 09:59:36;;;;;;;;;;;7.70;83.20;;;;;;5079045;28;19920;-88
2022/02/12 10:02:02;;;;;;;;;;;7.90;80.70;;;;;;5080525;28;19909;-86
2022/02/12 10:04:31;;;;;;;;;;;8.20;78.90;;;;;;5080197;28;19908;-87
2022/02/12 10:06:57;;;;;;;;;;;8.50;79.10;;;;;;5078929;28;19915;-88
2022/02/12 10:09:23;;;;;;;;;;;8.80;78.10;;;;;;5078856;28;19913;-88
2022/02/12 10:11:49;;;;;;;;;;;9.10;75.70;;;;;;5067510;28;19913;-88
2022/02/12 10:14:16;;;;;;;;;;;9.30;73.80;;;;;;5079019;28;19912;-87
2022/02/12 10:16:54;;;;;;;;;;;9.30;73.60;;;;;;5080377;28;19919;-87
2022/02/12 10:19:33;;;;;;;;;;;9.40;74.10;;;;;;5073608;28;19958;-87
2022/02/12 10:22:06;;;;;;;;;;;9.60;73.00;;;;;;5078884;28;19954;-87
2022/02/12 10:24:44;;;;;;;;;;;10.10;72.50;;;;;;5078881;28;19959;-87
2022/02/12 10:27:09;;;;;;;;;;;10.50;71.10;;;;;;5079553;28;19947;-87
2022/02/12 10:29:35;;;;;;;;;;;10.90;70.20;;;;;;5080172;28;19927;-87
2022/02/12 10:32:01;;;;;;;;;;;11.30;68.90;;;;;;5079583;28;19912;-87
2022/02/12 10:34:37;;;;;;;;;;;11.50;67.50;;;;;;5079819;28;19916;-86
2022/02/12 10:37:03;;;;;;;;;;;11.80;66.80;;;;;;5066460;28;19909;-86
2022/02/12 10:39:28;;;;;;;;;;;12.20;64.80;;;;;;5075427;28;20004;-87
2022/02/12 10:42:04;;;;;;;;;;;12.50;64.00;;;;;;5066144;28;19970;-87
2022/02/12 10:44:31;;;;;;;;;;;12.60;62.90;;;;;;5079613;28;19920;-87
2022/02/12 10:46:56;;;;;;;;;;;12.80;62.80;;;;;;5079595;28;19938;-87
2022/02/12 10:49:23;;;;;;;;;;;13.00;63.40;;;;;;5079397;28;19991;-87
2022/02/12 10:51:51;;;;;;;;;;;13.20;63.00;;;;;;5078293;28;19919;-87
2022/02/12 10:54:19;;;;;;;;;;;13.50;62.10;;;;;;5079284;28;19931;-87
2022/02/12 10:56:57;;;;;;;;;;;13.70;61.50;;;;;;5079096;28;19930;-87
2022/02/12 10:59:24;;;;;;;;;;;13.90;60.80;;;;;;5078156;28;19908;-87
2022/02/12 11:01:53;;;;;;;;;;;14.10;59.50;;;;;;5079265;28;19908;-87
2022/02/12 11:04:19;;;;;;;;;;;14.30;60.10;;;;;;5078853;28;19908;-87
2022/02/12 11:06:46;;;;;;;;;;;14.40;58.60;;;;;;5079354;28;19919;-87
2022/02/12 11:09:12;;;;;;;;;;;14.60;60.40;;;;;;5078824;28;19908;-86
2022/02/12 11:11:38;;;;;;;;;;;14.90;60.60;;;;;;5067940;28;19920;-87
2022/02/12 11:14:05;;;;;;;;;;;15.10;58.30;;;;;;5076497;28;19908;-86
2022/02/12 11:16:31;;;;;;;;;;;15.20;58.30;;;;;;5079122;28;19908;-87
2022/02/12 11:18:57;;;;;;;;;;;15.40;57.40;;;;;;5078690;28;20333;-86
2022/02/12 11:21:24;;;;;;;;;;;15.60;57.50;;;;;;5079026;28;19999;-86
2022/02/12 11:24:00;;;;;;;;;;;15.60;56.70;;;;;;5078650;28;19912;-87
2022/02/12 11:26:25;;;;;;;;;;;15.70;56.50;;;;;;5078662;28;19919;-86
2022/02/12 11:28:52;;;;;;;;;;;15.90;57.40;;;;;;5078539;28;20337;-86
2022/02/12 11:31:25;;;;;;;;;;;16.00;57.90;;;;;;5078803;28;19908;-86
2022/02/12 11:34:09;;;;;;;;;;;16.40;58.50;;;;;;5078390;28;19908;-86
2022/02/12 11:36:35;;;;;;;;;;;16.70;56.50;;;;;;5078601;28;19917;-86
2022/02/12 11:39:10;;;;;;;;;;;16.80;57.00;;;;;;5077025;28;20363;-85
2022/02/12 11:41:36;;;;;;;;;;;17.10;58.50;;;;;;5075532;28;19927;-85
2022/02/12 11:44:02;;;;;;;;;;;17.40;57.20;;;;;;5077165;28;20340;-87
2022/02/12 11:47:01;;;;;;;;;;;17.70;55.60;;;;;;5077150;28;19916;-86
2022/02/12 11:49:26;;;;;;;;;;;17.70;53.40;;;;;;5078317;28;19915;-86
2022/02/12 11:51:52;;;;;;;;;;;17.80;54.40;;;;;;5078259;28;19913;-86
2022/02/12 11:54:37;;;;;;;;;;;17.80;54.90;;;;;;5077970;28;20382;-86
2022/02/12 11:57:02;;;;;;;;;;;18.00;55.20;;;;;;5078168;28;19947;-85
2022/02/12 11:59:28;;;;;;;;;;;18.30;55.50;;;;;;5078114;28;20392;-86
2022/02/12 12:01:54;;;;;;;;;;;18.60;53.70;;;;;;5078002;28;19908;-86
2022/02/12 12:04:22;;;;;;;;;;;18.70;54.30;;;;;;5077801;28;19909;-86
2022/02/12 12:07:04;;;;;;;;;;;18.80;54.40;;;;;;5078215;28;19916;-86
2022/02/12 12:09:31;;;;;;;;;;;18.90;53.00;;;;;;5065758;28;19934;-87
2022/02/12 12:12:17;;;;;;;;;;;18.80;51.00;;;;;;5064306;28;19916;-87
2022/02/12 12:14:43;;;;;;;;;;;18.70;52.30;;;;;;5067519;28;19917;-87
2022/02/12 12:17:08;;;;;;;;;;;18.70;53.30;;;;;;5077951;28;20379;-87
2022/02/12 12:19:38;;;;;;;;;;;18.60;50.30;;;;;;5077841;28;19915;-86
2022/02/12 12:22:08;;;;;;;;;;;18.60;52.20;;;;;;5077840;28;19959;-85
2022/02/12 12:24:33;;;;;;;;;;;18.60;52.00;;;;;;5077772;28;19973;-85
2022/02/12 12:26:59;;;;;;;;;;;18.70;53.20;;;;;;5077520;28;19995;-86
2022/02/12 12:32:10;;;;;;;;;;;18.90;51.50;;;;;;5064884;28;19920;-86
2022/02/12 12:34:46;;;;;;;;;;;18.80;52.70;;;;;;5077883;28;20046;-86
2022/02/12 12:37:12;;;;;;;;;;;18.80;53.10;;;;;;5076797;28;19908;-86
2022/02/12 12:39:38;;;;;;;;;;;18.80;52.30;;;;;;5074245;28;20565;-86
2022/02/12 12:42:11;;;;;;;;;;;18.90;52.50;;;;;;5077641;28;19974;-86
2022/02/12 12:44:38;;;;;;;;;;;19.00;52.40;;;;;;5077608;28;19925;-87
2022/02/12 12:47:04;;;;;;;;;;;18.90;49.50;;;;;;5076444;28;19948;-87
2022/02/12 12:49:34;;;;;;;;;;;18.70;49.80;;;;;;5077602;28;19909;-86
2022/02/12 12:52:01;;;;;;;;;;;18.60;51.10;;;;;;5077820;28;19936;-86
2022/02/12 12:54:31;;;;;;;;;;;18.60;51.50;;;;;;5077236;28;19915;-86
2022/02/12 12:56:57;;;;;;;;;;;18.60;51.20;;;;;;5077306;28;19908;-87
2022/02/12 12:59:23;;;;;;;;;;;18.30;48.60;;;;;;5077404;28;19908;-86
2022/02/12 13:01:55;;;;;;;;;;;18.40;50.00;;;;;;5077565;28;20053;-86
2022/02/12 13:04:20;;;;;;;;;;;18.30;49.90;;;;;;5077129;28;20367;-86
2022/02/12 13:06:50;;;;;;;;;;;18.10;50.30;;;;;;5077511;28;19908;-86
2022/02/12 13:09:17;;;;;;;;;;;18.00;49.90;;;;;;5077205;28;19944;-87
2022/02/12 13:11:42;;;;;;;;;;;17.70;49.80;;;;;;5072405;28;19913;-87
2022/02/12 13:14:08;;;;;;;;;;;17.60;50.40;;;;;;5076584;28;20003;-87
2022/02/12 13:16:40;;;;;;;;;;;17.50;50.60;;;;;;5081542;28;19908;-87
2022/02/12 13:19:19;;;;;;;;;;;17.30;51.10;;;;;;5079715;28;20458;-87
2022/02/12 13:21:49;;;;;;;;;;;17.10;50.90;;;;;;5079859;28;19916;-87
2022/02/12 13:24:15;;;;;;;;;;;16.90;50.70;;;;;;5081134;28;20376;-87
2022/02/12 13:26:41;;;;;;;;;;;16.80;50.30;;;;;;5079385;28;19935;-87
2022/02/12 13:29:17;;;;;;;;;;;16.60;50.60;;;;;;5081271;28;19913;-87
2022/02/12 13:31:47;;;;;;;;;;;16.40;50.10;;;;;;5080720;28;19920;-87
2022/02/12 13:34:15;;;;;;;;;;;16.20;51.60;;;;;;5081025;28;19909;-87
2022/02/12 13:36:41;;;;;;;;;;;16.10;50.60;;;;;;5079495;28;19915;-87
2022/02/12 13:39:06;;;;;;;;;;;15.90;50.70;;;;;;5079655;28;19909;-87
2022/02/12 13:41:38;;;;;;;;;;;15.80;50.60;;;;;;5078007;28;19915;-87
2022/02/12 13:44:04;;;;;;;;;;;15.70;51.40;;;;;;5080628;28;19939;-86
2022/02/12 13:46:33;;;;;;;;;;;15.50;51.70;;;;;;5080600;28;20368;-86
2022/02/12 13:49:12;;;;;;;;;;;15.40;50.80;;;;;;5080735;28;19909;-87
2022/02/12 13:51:48;;;;;;;;;;;15.30;50.80;;;;;;5068661;28;19916;-86
2022/02/12 13:54:14;;;;;;;;;;;15.10;51.60;;;;;;5080358;28;19908;-87
2022/02/12 13:56:41;;;;;;;;;;;14.90;52.40;;;;;;5080305;28;19916;-86
2022/02/12 13:59:07;;;;;;;;;;;14.80;52.10;;;;;;5080395;28;19999;-86
2022/02/12 14:01:33;;;;;;;;;;;14.60;52.10;;;;;;5079177;28;19944;-84
2022/02/12 14:03:58;;;;;;;;;;;14.40;52.70;;;;;;5080297;28;20291;-87
2022/02/12 14:06:24;;;;;;;;;;;14.10;52.30;;;;;;5080657;28;20011;-87
2022/02/12 14:08:50;;;;;;;;;;;13.90;52.90;;;;;;5080223;28;20368;-86
2022/02/12 14:11:18;;;;;;;;;;;13.60;54.00;;;;;;5072209;28;19913;-87
2022/02/12 14:13:43;;;;;;;;;;;13.40;54.20;;;;;;5075031;28;19923;-87
2022/02/12 14:16:09;;;;;;;;;;;13.20;54.50;;;;;;5080389;28;19909;-87
2022/02/12 14:18:35;;;;;;;;;;;13.10;54.20;;;;;;5078985;28;19999;-87
2022/02/12 14:21:02;;;;;;;;;;;12.70;55.40;;;;;;5080452;28;20359;-87
2022/02/12 14:23:27;;;;;;;;;;;12.60;55.30;;;;;;5077711;28;19919;-84
2022/02/12 14:25:53;;;;;;;;;;;12.30;55.80;;;;;;5076145;28;20379;-80
2022/02/12 14:28:19;;;;;;;;;;;12.20;56.70;;;;;;5076217;28;19975;-77
2022/02/12 14:30:45;;;;;;;;;;;12.00;57.00;;;;;;5078218;28;19999;-77